Airfield :
LOGIN :

Register | Disclaimer

   EN    FR    IT 

 










Legend :    VFR   Marginal VFR   IFR   Intensive IFR   Very Intensive IFR
Visi :
Ceiling :
>= 8 km
>= 3000ft
5 to 8 km
1000 to 3000 ft
1500m to 5 km
500 to 1000 ft
800 to 1500m
200 to 500 ft
< 800m
< 200 ft
Symbols :   Thunderstorms  Fog  Heavy snow  Heavy precipitations  Wind > 20 kt
SIGMETs :     Misc.  Thunderstorms  Icing  Turbulence  Mountain Waves  Volcanic Ashes






- Airport Elevation : 162 ft
- IATA code : BOD


LFBD - Bordeaux / Merignac

CURRENT METAR :
  • 041000Z AUTO 29006KT 240V320 9999 BKN037 21/13 Q1025 NOSIG

EXPIRED METARs :
  • 040930Z AUTO 31006KT 280V350 9999 BKN036 21/12 Q1025 NOSIG
  • 040900Z AUTO 27006KT 220V300 9999 BKN032 20/12 Q1025 NOSIG
  • 040830Z AUTO 27005KT 230V320 9999 BKN030 20/13 Q1025 NOSIG
  • 040800Z AUTO 27005KT 240V310 9999 FEW025 19/12 Q1025 NOSIG
  • 040730Z AUTO 23004KT 190V270 CAVOK 18/13 Q1025 NOSIG

TAF TAF LFBD
Valid from the 04 at 06:00 until the 05 at 12:00 UTC


040500Z 0406/0512 23005KT CAVOK TX26/0414Z TN12/0406Z
BECMG 0410/0412 28010KT
BECMG 0421/0423 23005KT
PROB30 0505/0510 BKN010
ATIS : +33 5 57 92 81 04



MET'MAP, your aeronautical weather chart ! - Copyright ORBIFLY December 2007 - Disclaimer

ORBIFLY MET'MAP TEAM :

Programming & Development : Alexandra Zaïnal
Concept & original design : Baudouin d'Aumeries
Assistance for programming : Marc-Olivier Méhu
Technical & hardware support : Manuel Goepfert

Contact : metmap@orbifly.com




SOURCES & CREDITS :

   NOAA